createdAt,value
2018-04-16T00:00:41.240Z,5.25
2018-04-16T00:03:09.427Z,2.67
2018-04-16T00:05:37.614Z,2.58
2018-04-16T00:08:05.798Z,1.87
2018-04-16T00:10:33.990Z,7.50
2018-04-16T00:13:02.174Z,4.60
2018-04-16T00:15:30.367Z,9.40
2018-04-16T00:17:58.568Z,4.32
2018-04-16T00:20:26.042Z,2.75
2018-04-16T00:22:53.510Z,3.37
2018-04-16T00:25:20.943Z,4.43
2018-04-16T00:27:48.358Z,6.03
2018-04-16T00:30:15.778Z,5.05
2018-04-16T00:32:48.954Z,6.25
2018-04-16T00:35:21.979Z,7.03
2018-04-16T00:37:55.158Z,5.82
2018-04-16T00:40:28.187Z,6.05
2018-04-16T00:43:01.291Z,5.10
2018-04-16T00:45:35.094Z,4.57
2018-04-16T00:48:08.306Z,2.55
2018-04-16T00:50:41.454Z,3.78
2018-04-16T00:53:14.511Z,3.05
2018-04-16T00:55:47.674Z,2.95
2018-04-16T00:58:20.846Z,5.12
2018-04-16T01:00:54.078Z,3.72
2018-04-16T01:03:27.333Z,5.45
2018-04-16T01:06:01.159Z,2.90
2018-04-16T01:08:35.090Z,5.68
2018-04-16T01:11:09.003Z,3.75
2018-04-16T01:13:42.961Z,2.72
2018-04-16T01:16:16.203Z,3.25
2018-04-16T01:18:49.310Z,3.58
2018-04-16T01:21:22.538Z,4.45
2018-04-16T01:23:56.469Z,6.15
2018-04-16T01:29:34.505Z,5.80
2018-04-16T01:35:08.711Z,3.42
2018-04-16T01:37:41.906Z,5.82
2018-04-16T01:40:15.086Z,3.10
2018-04-16T01:42:48.146Z,4.05
2018-04-16T01:45:21.422Z,6.40
2018-04-16T01:47:54.499Z,6.50
2018-04-16T01:50:28.434Z,6.85
2018-04-16T01:53:02.440Z,8.20
2018-04-16T01:55:35.541Z,3.90
2018-04-16T01:58:08.766Z,7.97
2018-04-16T02:00:42.582Z,5.75
2018-04-16T02:03:16.527Z,4.93
2018-04-16T02:05:49.570Z,8.20
2018-04-16T02:08:22.819Z,5.10
2018-04-16T02:10:56.698Z,6.95
2018-04-16T02:16:34.778Z,8.57
2018-04-16T02:19:08.546Z,5.18
2018-04-16T02:21:41.630Z,5.78
2018-04-16T02:24:14.734Z,6.53
2018-04-16T02:26:47.894Z,5.45
2018-04-16T02:29:21.043Z,6.78
2018-04-16T02:31:54.174Z,9.65
2018-04-16T02:34:27.173Z,7.03
2018-04-16T02:37:00.389Z,8.07
2018-04-16T02:39:33.639Z,12.70
2018-04-16T02:42:07.446Z,5.20
2018-04-16T02:44:41.368Z,8.52
2018-04-16T02:47:15.098Z,5.45
2018-04-16T02:49:48.166Z,7.35
2018-04-16T02:52:21.267Z,9.30
2018-04-16T02:54:54.486Z,10.48
2018-04-16T02:57:28.299Z,5.32
2018-04-16T03:00:01.542Z,4.80
2018-04-16T03:02:35.310Z,5.37
2018-04-16T03:05:08.537Z,5.60
2018-04-16T03:07:41.599Z,10.50
2018-04-16T03:10:14.747Z,9.77
2018-04-16T03:12:48.530Z,5.90
2018-04-16T03:15:21.587Z,12.57
2018-04-16T03:17:54.642Z,5.25
2018-04-16T03:20:27.866Z,9.38
2018-04-16T03:23:01.651Z,7.72
2018-04-16T03:28:42.539Z,7.97
2018-04-16T03:31:15.723Z,5.20
2018-04-16T03:33:49.504Z,5.90
2018-04-16T03:36:22.734Z,5.70
2018-04-16T03:38:57.575Z,7.12
2018-04-16T03:41:30.793Z,5.57
2018-04-16T03:44:04.682Z,6.35
2018-04-16T03:46:37.912Z,6.53
2018-04-16T03:49:10.994Z,6.87
2018-04-16T03:51:39.974Z,5.95
2018-04-16T03:54:07.390Z,9.68
2018-04-16T03:56:35.585Z,5.50
2018-04-16T03:59:03.768Z,6.30
2018-04-16T04:01:31.968Z,6.15
2018-04-16T04:03:59.385Z,7.37
2018-04-16T04:06:26.810Z,6.43
2018-04-16T04:08:54.354Z,7.53
2018-04-16T04:11:21.774Z,7.78
2018-04-16T04:13:49.231Z,7.55
2018-04-16T04:16:16.656Z,8.20
2018-04-16T04:18:44.070Z,6.45
2018-04-16T04:21:11.535Z,7.05
2018-04-16T04:23:50.806Z,7.20
2018-04-16T04:26:30.278Z,9.90
2018-04-16T04:29:09.594Z,9.70
2018-04-16T04:31:37.018Z,10.00
2018-04-16T04:34:04.531Z,15.02
2018-04-16T04:36:31.962Z,23.85
2018-04-16T04:39:00.158Z,35.05
2018-04-16T04:41:28.354Z,30.48
2018-04-16T04:43:55.834Z,30.52
2018-04-16T04:46:23.311Z,39.90
2018-04-16T04:48:51.642Z,36.85
2018-04-16T04:51:19.071Z,35.47
2018-04-16T04:53:46.534Z,37.40
2018-04-16T04:56:14.008Z,37.10
2018-04-16T04:58:41.478Z,35.05
2018-04-16T05:01:08.947Z,25.12
2018-04-16T05:03:37.123Z,13.60
2018-04-16T05:06:04.546Z,19.30
2018-04-16T05:08:32.071Z,15.10
2018-04-16T05:10:59.552Z,23.90
2018-04-16T05:13:27.014Z,24.40
2018-04-16T05:15:54.486Z,25.98
2018-04-16T05:18:21.918Z,29.20
2018-04-16T05:20:50.142Z,30.00
2018-04-16T05:23:17.572Z,23.42
2018-04-16T05:25:45.083Z,17.67
2018-04-16T05:28:12.521Z,17.92
2018-04-16T05:30:39.938Z,13.30
2018-04-16T05:33:07.371Z,14.13
2018-04-16T05:35:35.554Z,12.82
2018-04-16T05:38:03.746Z,8.68
2018-04-16T05:40:31.238Z,12.05
2018-04-16T05:42:58.698Z,24.20
2018-04-16T05:45:26.123Z,13.60
2018-04-16T05:47:53.646Z,11.55
2018-04-16T05:50:21.066Z,13.48
2018-04-16T05:52:48.581Z,10.93
2018-04-16T05:55:16.054Z,13.70
2018-04-16T05:57:43.546Z,9.43
2018-04-16T06:00:10.987Z,11.05
2018-04-16T06:02:38.459Z,8.93
2018-04-16T06:05:05.938Z,10.70
2018-04-16T06:07:33.350Z,8.13
2018-04-16T06:10:00.775Z,8.20
2018-04-16T06:12:28.194Z,8.30
2018-04-16T06:14:55.715Z,6.90
2018-04-16T06:17:23.126Z,4.93
2018-04-16T06:19:50.550Z,4.32
2018-04-16T06:22:17.970Z,4.87
2018-04-16T06:24:46.903Z,5.90
2018-04-16T06:27:14.345Z,6.70
2018-04-16T06:29:41.745Z,6.40
2018-04-16T06:32:09.163Z,7.60
2018-04-16T06:34:36.698Z,9.30
2018-04-16T06:37:04.136Z,10.02
2018-04-16T06:39:31.634Z,10.85
2018-04-16T06:41:59.058Z,11.57
2018-04-16T06:44:28.003Z,11.55
2018-04-16T06:46:55.426Z,12.77
2018-04-16T06:49:22.855Z,12.77
2018-04-16T06:51:50.283Z,13.25
2018-04-16T06:54:18.477Z,12.02
2018-04-16T06:56:46.668Z,12.23
2018-04-16T06:59:14.872Z,10.00
2018-04-16T07:01:42.368Z,11.88
2018-04-16T07:04:09.840Z,5.50
2018-04-16T07:06:38.009Z,8.93
2018-04-16T07:09:06.306Z,6.35
2018-04-16T07:11:33.714Z,8.05
2018-04-16T07:14:01.243Z,6.50
2018-04-16T07:16:28.667Z,7.70
2018-04-16T07:18:56.851Z,7.82
2018-04-16T07:21:25.072Z,7.95
2018-04-16T07:23:52.541Z,6.85
2018-04-16T07:26:20.011Z,9.85
2018-04-16T07:28:47.426Z,6.80
2018-04-16T07:31:14.850Z,8.63
2018-04-16T07:33:42.270Z,9.23
2018-04-16T07:36:09.694Z,7.12
2018-04-16T07:38:37.111Z,6.50
2018-04-16T07:41:04.540Z,4.70
2018-04-16T07:43:31.953Z,4.20
2018-04-16T07:45:59.379Z,7.40
2018-04-16T07:48:26.800Z,3.90
2018-04-16T07:50:55.018Z,4.22
2018-04-16T07:53:22.489Z,4.60
2018-04-16T07:55:49.962Z,4.15
2018-04-16T07:58:17.386Z,2.95
2018-04-16T08:00:44.802Z,4.53
2018-04-16T08:03:12.235Z,4.82
2018-04-16T08:05:40.451Z,4.10
2018-04-16T08:08:07.879Z,4.70
2018-04-16T08:10:35.391Z,3.80
2018-04-16T08:13:02.816Z,6.55
2018-04-16T08:15:30.230Z,2.80
2018-04-16T08:17:57.658Z,2.53
2018-04-16T08:20:25.891Z,2.95
2018-04-16T08:22:53.354Z,3.53
2018-04-16T08:25:20.770Z,2.22
2018-04-16T08:27:48.199Z,1.90
2018-04-16T08:30:15.663Z,2.42
2018-04-16T08:32:43.134Z,2.92
2018-04-16T08:35:10.622Z,2.00
2018-04-16T08:37:38.046Z,2.33
2018-04-16T08:40:06.230Z,2.30
2018-04-16T08:42:34.447Z,3.90
2018-04-16T08:45:01.862Z,3.87
2018-04-16T08:47:30.923Z,4.40
2018-04-16T08:49:58.403Z,3.37
2018-04-16T08:52:25.859Z,6.75
2018-04-16T08:54:53.270Z,3.33
2018-04-16T08:57:20.699Z,5.20
2018-04-16T08:59:48.113Z,3.25
2018-04-16T09:02:15.542Z,2.47
2018-04-16T09:04:42.959Z,4.18
2018-04-16T09:07:10.395Z,2.37
2018-04-16T09:09:37.842Z,3.12
2018-04-16T09:12:05.314Z,6.70
2018-04-16T09:14:32.729Z,3.33
2018-04-16T09:17:00.262Z,2.60
2018-04-16T09:19:27.674Z,2.62
2018-04-16T09:21:55.091Z,5.68
2018-04-16T09:24:22.514Z,3.53
2018-04-16T09:26:50.746Z,3.65
2018-04-16T09:29:18.175Z,2.90
2018-04-16T09:31:45.590Z,4.07
2018-04-16T09:34:13.018Z,2.08
2018-04-16T09:36:40.445Z,3.60
2018-04-16T09:39:07.899Z,2.37
2018-04-16T09:41:35.318Z,3.08
2018-04-16T09:44:02.747Z,3.28
2018-04-16T09:46:30.164Z,2.60
2018-04-16T09:48:57.667Z,3.30
2018-04-16T09:51:25.139Z,2.78
2018-04-16T09:53:52.562Z,4.87
2018-04-16T09:56:20.080Z,4.40
2018-04-16T09:58:47.851Z,2.35
2018-04-16T10:01:20.454Z,2.03
2018-04-16T10:03:47.919Z,1.90
2018-04-16T10:06:15.393Z,1.50
2018-04-16T10:08:42.814Z,4.05
2018-04-16T10:11:10.238Z,2.72
2018-04-16T10:13:37.654Z,4.62
2018-04-16T10:16:05.070Z,1.73
2018-04-16T10:18:32.498Z,5.57
2018-04-16T10:21:00.678Z,3.67
2018-04-16T10:23:28.188Z,1.85
2018-04-16T10:25:55.606Z,2.40
2018-04-16T10:28:23.030Z,3.95
2018-04-16T10:30:50.446Z,1.67
2018-04-16T10:33:17.966Z,2.28
2018-04-16T10:35:45.381Z,2.28
2018-04-16T10:38:12.806Z,3.53
2018-04-16T10:40:40.226Z,2.08
2018-04-16T10:43:07.742Z,1.85
2018-04-16T10:45:35.210Z,3.97
2018-04-16T10:48:02.683Z,4.53
2018-04-16T10:50:30.107Z,2.95
2018-04-16T10:52:57.626Z,1.58
2018-04-16T10:55:25.038Z,3.20
2018-04-16T10:57:52.572Z,2.47
2018-04-16T11:00:19.994Z,1.90
2018-04-16T11:02:47.410Z,3.10
2018-04-16T11:05:14.829Z,1.85
2018-04-16T11:07:42.261Z,2.00
2018-04-16T11:10:09.678Z,3.25
2018-04-16T11:12:37.878Z,6.18
2018-04-16T11:15:06.059Z,5.22
2018-04-16T11:17:34.250Z,2.28
2018-04-16T11:20:02.463Z,2.28
2018-04-16T11:22:30.027Z,2.00
2018-04-16T11:24:57.456Z,4.25
2018-04-16T11:27:24.969Z,4.15
2018-04-16T11:29:52.387Z,2.03
2018-04-16T11:32:19.852Z,2.78
2018-04-16T11:34:47.278Z,5.20
2018-04-16T11:37:14.742Z,2.33
2018-04-16T11:39:42.174Z,1.50
2018-04-16T11:42:09.683Z,5.35
2018-04-16T11:44:37.150Z,3.40
2018-04-16T11:47:04.565Z,2.35
2018-04-16T11:49:32.097Z,2.70
2018-04-16T11:51:59.515Z,1.27
2018-04-16T11:54:27.031Z,2.47
2018-04-16T11:56:54.499Z,1.10
2018-04-16T11:59:21.923Z,1.27
2018-04-16T12:01:49.342Z,2.37
2018-04-16T12:04:16.854Z,2.62
2018-04-16T12:06:44.304Z,1.27
2018-04-16T12:09:11.719Z,2.05
2018-04-16T12:11:39.907Z,1.40
2018-04-16T12:14:08.123Z,3.65
2018-04-16T12:16:35.570Z,1.65
2018-04-16T12:19:02.978Z,1.75
2018-04-16T12:21:30.386Z,1.55
2018-04-16T12:23:57.898Z,1.95
2018-04-16T12:26:25.314Z,3.87
2018-04-16T12:28:53.769Z,0.93
2018-04-16T12:31:21.233Z,1.48
2018-04-16T12:33:48.654Z,2.33
2018-04-16T12:36:16.171Z,1.87
2018-04-16T12:38:43.642Z,0.75
2018-04-16T12:41:11.063Z,1.35
2018-04-16T12:43:38.489Z,2.58
2018-04-16T12:46:05.905Z,3.00
2018-04-16T12:48:33.420Z,2.03
2018-04-16T12:51:00.849Z,3.30
2018-04-16T12:53:28.262Z,1.95
2018-04-16T12:55:55.729Z,2.42
2018-04-16T12:58:23.195Z,2.85
2018-04-16T13:00:50.619Z,1.55
2018-04-16T13:03:18.042Z,1.48
2018-04-16T13:05:45.466Z,1.55
2018-04-16T13:08:12.878Z,1.02
2018-04-16T13:10:40.339Z,1.87
2018-04-16T13:13:07.771Z,0.43
2018-04-16T13:15:35.278Z,3.92
2018-04-16T13:18:02.748Z,3.97
2018-04-16T13:20:30.223Z,1.45
2018-04-16T13:22:57.648Z,1.15
2018-04-16T13:25:26.582Z,0.90
2018-04-16T13:27:54.062Z,1.70
2018-04-16T13:30:21.486Z,0.77
2018-04-16T13:32:48.998Z,1.70
2018-04-16T13:35:16.422Z,0.70
2018-04-16T13:37:43.940Z,2.80
2018-04-16T13:40:11.362Z,2.30
2018-04-16T13:42:39.550Z,1.60
2018-04-16T13:45:06.978Z,2.85
2018-04-16T13:47:34.403Z,1.20
2018-04-16T13:50:02.594Z,1.45
2018-04-16T13:52:30.775Z,2.03
2018-04-16T13:54:58.995Z,2.28
2018-04-16T13:57:26.464Z,2.75
2018-04-16T13:59:53.935Z,5.55
2018-04-16T14:02:21.407Z,2.35
2018-04-16T14:04:48.876Z,2.03
2018-04-16T14:07:16.299Z,2.58
2018-04-16T14:09:43.722Z,2.00
2018-04-16T14:12:11.189Z,1.27
2018-04-16T14:14:38.663Z,1.25
2018-04-16T14:17:06.082Z,3.50
2018-04-16T14:19:33.518Z,0.95
2018-04-16T14:22:00.966Z,2.25
2018-04-16T14:24:28.389Z,3.20
2018-04-16T14:26:57.315Z,1.30
2018-04-16T14:29:25.551Z,1.73
2018-04-16T14:31:52.938Z,0.73
2018-04-16T14:34:20.461Z,1.52
2018-04-16T14:36:47.930Z,2.28
2018-04-16T14:39:15.363Z,0.65
2018-04-16T14:41:42.783Z,1.27
2018-04-16T14:44:10.241Z,0.90
2018-04-16T14:46:38.398Z,2.30
2018-04-16T14:49:06.598Z,2.80
2018-04-16T14:51:34.017Z,5.35
2018-04-16T14:54:01.441Z,1.87
2018-04-16T14:56:28.855Z,4.95
2018-04-16T14:58:56.283Z,2.70
2018-04-16T15:01:23.698Z,1.48
2018-04-16T15:03:51.122Z,5.20
2018-04-16T15:06:18.544Z,1.65
2018-04-16T15:08:46.062Z,3.97
2018-04-16T15:11:13.534Z,4.68
2018-04-16T15:13:40.963Z,3.40
2018-04-16T15:16:08.378Z,2.25
2018-04-16T15:18:35.816Z,8.95
2018-04-16T15:21:03.310Z,6.82
2018-04-16T15:23:30.758Z,1.25
2018-04-16T15:25:58.953Z,2.05
2018-04-16T15:28:26.373Z,1.08
2018-04-16T15:30:53.806Z,1.90
2018-04-16T15:33:21.237Z,5.25
2018-04-16T15:35:48.668Z,2.50
2018-04-16T15:38:16.081Z,1.75
2018-04-16T15:40:44.298Z,2.15
2018-04-16T15:43:11.726Z,1.40
2018-04-16T15:45:39.150Z,2.45
2018-04-16T15:48:06.580Z,2.08
2018-04-16T15:50:34.799Z,2.53
2018-04-16T15:53:02.216Z,1.42
2018-04-16T15:55:29.644Z,5.20
2018-04-16T15:57:57.058Z,6.20
2018-04-16T16:00:24.567Z,3.85
2018-04-16T16:02:51.990Z,5.12
2018-04-16T16:05:19.418Z,2.35
2018-04-16T16:07:46.871Z,2.30
2018-04-16T16:10:14.303Z,2.17
2018-04-16T16:12:41.816Z,3.17
2018-04-16T16:15:09.274Z,2.00
2018-04-16T16:17:36.754Z,1.42
2018-04-16T16:20:04.231Z,2.47
2018-04-16T16:22:31.641Z,1.33
2018-04-16T16:24:59.074Z,4.45
2018-04-16T16:27:26.533Z,2.22
2018-04-16T16:29:54.007Z,0.88
2018-04-16T16:32:21.417Z,3.85
2018-04-16T16:34:48.939Z,1.30
2018-04-16T16:37:16.365Z,0.80
2018-04-16T16:39:45.290Z,3.40
2018-04-16T16:42:13.506Z,1.70
2018-04-16T16:44:40.938Z,3.17
2018-04-16T16:47:09.138Z,2.17
2018-04-16T16:49:37.334Z,0.70
2018-04-16T16:52:05.542Z,1.70
2018-04-16T16:54:32.962Z,2.22
2018-04-16T16:57:00.576Z,0.85
2018-04-16T16:59:28.747Z,6.18
2018-04-16T17:01:56.163Z,2.28
2018-04-16T17:04:23.590Z,1.50
2018-04-16T17:06:51.003Z,1.02
2018-04-16T17:09:18.431Z,1.12
2018-04-16T17:11:45.903Z,0.93
2018-04-16T17:14:13.330Z,1.95
2018-04-16T17:16:40.843Z,1.10
2018-04-16T17:19:08.267Z,2.08
2018-04-16T17:21:35.783Z,1.95
2018-04-16T17:24:03.259Z,2.15
2018-04-16T17:26:31.532Z,1.75
2018-04-16T17:28:58.935Z,3.42
2018-04-16T17:31:26.356Z,3.05
2018-04-16T17:33:54.566Z,2.33
2018-04-16T17:36:22.038Z,2.17
2018-04-16T17:38:49.507Z,0.62
2018-04-16T17:41:16.979Z,2.08
2018-04-16T17:43:44.406Z,4.50
2018-04-16T17:46:11.914Z,2.85
2018-04-16T17:48:39.597Z,4.97
2018-04-16T17:51:07.003Z,3.80
2018-04-16T17:53:34.417Z,5.47
2018-04-16T17:56:01.850Z,2.78
2018-04-16T17:58:29.266Z,5.68
2018-04-16T18:00:56.752Z,5.30
2018-04-16T18:03:24.207Z,4.30
2018-04-16T18:05:51.678Z,3.75
2018-04-16T18:08:19.094Z,8.38
2018-04-16T18:10:46.547Z,4.35
2018-04-16T18:13:14.006Z,2.28
2018-04-16T18:15:41.431Z,8.35
2018-04-16T18:18:09.646Z,2.83
2018-04-16T18:20:37.069Z,3.83
2018-04-16T18:23:04.490Z,3.05
2018-04-16T18:25:31.950Z,3.40
2018-04-16T18:27:59.439Z,4.40
2018-04-16T18:30:26.887Z,8.07
2018-04-16T18:32:54.306Z,4.10
2018-04-16T18:35:22.553Z,2.70
2018-04-16T18:37:49.990Z,3.97
2018-04-16T18:40:18.207Z,2.30
2018-04-16T18:42:45.622Z,3.50
2018-04-16T18:45:13.816Z,3.05
2018-04-16T18:47:41.327Z,3.87
2018-04-16T18:50:08.799Z,5.97
2018-04-16T18:52:36.266Z,2.25
2018-04-16T18:55:03.744Z,2.00
2018-04-16T18:57:31.154Z,1.35
2018-04-16T18:59:58.582Z,4.18
2018-04-16T19:02:26.007Z,4.37
2018-04-16T19:04:53.514Z,4.90
2018-04-16T19:07:20.930Z,7.10
2018-04-16T19:09:48.454Z,3.37
2018-04-16T19:12:15.882Z,5.00
2018-04-16T19:14:43.316Z,2.70
2018-04-16T19:17:10.864Z,4.15
2018-04-16T19:19:38.294Z,2.28
2018-04-16T19:22:06.527Z,8.23
2018-04-16T19:24:33.939Z,2.35
2018-04-16T19:27:08.615Z,9.75
2018-04-16T19:29:36.832Z,4.85
2018-04-16T19:32:04.267Z,4.78
2018-04-16T19:34:38.078Z,5.22
2018-04-16T19:37:06.278Z,3.95
2018-04-16T19:39:34.496Z,6.70
2018-04-16T19:42:07.670Z,5.50
2018-04-16T19:44:35.094Z,2.80
2018-04-16T19:47:02.526Z,5.12
2018-04-16T19:49:35.730Z,5.40
2018-04-16T19:52:03.198Z,7.03
2018-04-16T19:54:30.618Z,6.22
2018-04-16T19:57:03.656Z,7.25
2018-04-16T19:59:31.085Z,4.90
2018-04-16T20:02:04.355Z,6.95
2018-04-16T20:04:31.775Z,4.60
2018-04-16T20:06:59.280Z,6.47
2018-04-16T20:09:27.461Z,6.50
2018-04-16T20:11:54.913Z,3.22
2018-04-16T20:14:23.099Z,5.37
2018-04-16T20:16:51.294Z,10.70
2018-04-16T20:19:18.721Z,6.07
2018-04-16T20:21:46.146Z,6.05
2018-04-16T20:24:13.586Z,2.35
2018-04-16T20:26:41.827Z,8.65
2018-04-16T20:29:09.250Z,6.65
2018-04-16T20:31:37.462Z,8.30
2018-04-16T20:34:04.870Z,4.55
2018-04-16T20:36:32.409Z,11.93
2018-04-16T20:38:59.823Z,4.78
2018-04-16T20:41:27.265Z,11.70
2018-04-16T20:43:54.697Z,6.97
2018-04-16T20:46:22.890Z,10.23
2018-04-16T20:48:51.223Z,8.95
2018-04-16T20:51:18.693Z,6.07
2018-04-16T20:53:46.096Z,13.57
2018-04-16T20:56:13.644Z,9.00
2018-04-16T20:58:41.069Z,7.45
2018-04-16T21:01:08.557Z,8.85
2018-04-16T21:03:35.976Z,7.50
2018-04-16T21:06:04.217Z,7.78
2018-04-16T21:08:31.672Z,9.85
2018-04-16T21:10:59.117Z,4.90
2018-04-16T21:13:27.331Z,4.55
2018-04-16T21:15:54.755Z,3.65
2018-04-16T21:18:22.984Z,4.20
2018-04-16T21:20:50.498Z,6.70
2018-04-16T21:23:17.893Z,9.65
2018-04-16T21:25:46.138Z,9.55
2018-04-16T21:28:13.613Z,5.65
2018-04-16T21:30:41.110Z,4.90
2018-04-16T21:33:09.335Z,4.57
2018-04-16T21:35:36.815Z,7.00
2018-04-16T21:38:04.280Z,5.35
2018-04-16T21:40:31.719Z,8.38
2018-04-16T21:42:59.940Z,5.97
2018-04-16T21:45:27.408Z,5.97
2018-04-16T21:47:54.810Z,9.25
2018-04-16T21:50:22.234Z,7.12
2018-04-16T21:52:49.718Z,6.62
2018-04-16T21:55:17.176Z,2.80
2018-04-16T21:57:44.666Z,20.33
2018-04-16T22:00:12.103Z,8.52
2018-04-16T22:02:39.530Z,9.32
2018-04-16T22:05:07.058Z,3.58
2018-04-16T22:07:34.494Z,7.12
2018-04-16T22:10:02.710Z,5.80
2018-04-16T22:12:30.292Z,12.23
2018-04-16T22:14:57.718Z,9.60
2018-04-16T22:17:25.918Z,8.32
2018-04-16T22:19:54.102Z,7.62
2018-04-16T22:22:22.298Z,4.37
2018-04-16T22:24:49.779Z,6.18
2018-04-16T22:27:17.247Z,3.80
2018-04-16T22:29:44.666Z,9.10
2018-04-16T22:32:12.189Z,5.43
2018-04-16T22:34:39.615Z,4.78
2018-04-16T22:37:07.814Z,6.50
2018-04-16T22:39:36.040Z,6.43
2018-04-16T22:42:03.479Z,7.65
2018-04-16T22:44:31.694Z,7.30
2018-04-16T22:46:59.118Z,7.60
2018-04-16T22:49:26.542Z,7.57
2018-04-16T22:51:53.962Z,12.95
2018-04-16T22:54:22.146Z,9.85
2018-04-16T22:56:49.566Z,6.68
2018-04-16T22:59:16.982Z,8.25
2018-04-16T23:01:44.406Z,9.07
2018-04-16T23:04:11.858Z,4.72
2018-04-16T23:06:39.335Z,5.62
2018-04-16T23:09:06.759Z,5.70
2018-04-16T23:11:34.954Z,8.65
2018-04-16T23:14:03.148Z,5.82
2018-04-16T23:16:31.359Z,7.55
2018-04-16T23:18:58.819Z,8.98
2018-04-16T23:21:26.290Z,9.00
2018-04-16T23:23:53.714Z,6.72
2018-04-16T23:26:21.143Z,6.03
2018-04-16T23:28:48.628Z,9.45
2018-04-16T23:31:16.059Z,9.43
2018-04-16T23:33:44.263Z,4.87
2018-04-16T23:36:11.739Z,5.93
2018-04-16T23:38:40.626Z,6.78
2018-04-16T23:41:08.827Z,5.43
2018-04-16T23:43:36.246Z,9.82
2018-04-16T23:46:05.202Z,5.28
2018-04-16T23:48:32.626Z,6.05
2018-04-16T23:51:00.062Z,12.07
2018-04-16T23:53:27.482Z,5.82
2018-04-16T23:55:55.674Z,11.38
2018-04-16T23:58:23.162Z,5.40
